createdAt,value
2019-01-29T00:00:37.793Z,98981.98
2019-01-29T00:03:41.084Z,98979.41
2019-01-29T00:06:44.518Z,98981.55
2019-01-29T00:09:47.477Z,98982.89
2019-01-29T00:12:50.473Z,98980.40
2019-01-29T00:15:53.763Z,98991.75
2019-01-29T00:18:56.671Z,98992.20
2019-01-29T00:22:00.898Z,98996.93
2019-01-29T00:25:05.710Z,98996.11
2019-01-29T00:28:08.837Z,98993.02
2019-01-29T00:31:11.815Z,98987.84
2019-01-29T00:34:15.068Z,98990.89
2019-01-29T00:37:18.023Z,98987.36
2019-01-29T00:40:21.254Z,98989.00
2019-01-29T00:43:24.180Z,98986.81
2019-01-29T00:46:28.126Z,98992.05
2019-01-29T00:49:31.420Z,98994.12
2019-01-29T00:52:41.891Z,98999.82
2019-01-29T00:55:39.778Z,98999.44
2019-01-29T00:58:43.074Z,99005.00
2019-01-29T01:01:46.283Z,99008.92
2019-01-29T01:04:49.579Z,99005.97
2019-01-29T01:07:53.508Z,99011.97
2019-01-29T01:10:57.072Z,99012.45
2019-01-29T01:14:00.283Z,99011.69
2019-01-29T01:17:03.337Z,99011.30
2019-01-29T01:20:10.302Z,99016.14
2019-01-29T01:23:13.198Z,99012.13
2019-01-29T01:26:16.439Z,99019.48
2019-01-29T01:29:19.669Z,99031.19
2019-01-29T01:32:22.592Z,99038.68
2019-01-29T01:35:25.520Z,99050.04
2019-01-29T01:38:28.420Z,99042.11
2019-01-29T01:41:31.688Z,99052.23
2019-01-29T01:44:34.595Z,99048.21
2019-01-29T01:47:39.320Z,99053.53
2019-01-29T01:50:42.266Z,99048.26
2019-01-29T01:53:45.463Z,99048.69
2019-01-29T01:56:48.684Z,99052.70
2019-01-29T01:59:51.863Z,99046.56
2019-01-29T02:02:55.522Z,99054.40
2019-01-29T02:05:59.085Z,99050.91
2019-01-29T02:09:08.273Z,99055.27
2019-01-29T02:12:11.520Z,99058.70
2019-01-29T02:15:14.520Z,99053.86
2019-01-29T02:18:17.548Z,99058.70
2019-01-29T02:21:21.256Z,99057.44
2019-01-29T02:24:24.558Z,99058.61
2019-01-29T02:27:27.492Z,99060.79
2019-01-29T02:30:30.764Z,99067.81
2019-01-29T02:33:33.750Z,99075.77
2019-01-29T02:36:36.938Z,99082.26
2019-01-29T02:39:39.856Z,99083.25
2019-01-29T02:42:43.154Z,99087.53
2019-01-29T02:45:46.417Z,99083.48
2019-01-29T02:48:49.628Z,99090.05
2019-01-29T02:51:52.893Z,99094.41
2019-01-29T02:54:56.469Z,99099.59
2019-01-29T02:58:00.380Z,99096.19
2019-01-29T03:01:03.396Z,99093.06
2019-01-29T03:04:06.640Z,99098.80
2019-01-29T03:07:10.553Z,99091.48
2019-01-29T03:10:17.690Z,99098.38
2019-01-29T03:13:20.601Z,99094.05
2019-01-29T03:16:23.530Z,99097.02
2019-01-29T03:19:27.071Z,99098.01
2019-01-29T03:22:30.346Z,99102.77
2019-01-29T03:25:33.700Z,99098.80
2019-01-29T03:28:36.615Z,99098.02
2019-01-29T03:31:39.558Z,99099.28
2019-01-29T03:34:42.827Z,99100.59
2019-01-29T03:37:45.727Z,99105.48
2019-01-29T03:40:48.973Z,99100.22
2019-01-29T03:43:51.908Z,99096.31
2019-01-29T03:46:54.820Z,99101.13
2019-01-29T03:49:58.424Z,99097.14
2019-01-29T03:53:01.623Z,99096.78
2019-01-29T03:56:05.153Z,99099.75
2019-01-29T03:59:08.496Z,99102.00
2019-01-29T04:02:12.082Z,99098.52
2019-01-29T04:05:15.714Z,99101.64
2019-01-29T04:08:19.598Z,99095.91
2019-01-29T04:11:22.815Z,99102.47
2019-01-29T04:14:25.835Z,99105.20
2019-01-29T04:17:28.739Z,99106.92
2019-01-29T04:20:31.667Z,99111.61
2019-01-29T04:23:34.940Z,99110.77
2019-01-29T04:26:38.573Z,99113.78
2019-01-29T04:29:41.490Z,99111.17
2019-01-29T04:32:44.437Z,99108.06
2019-01-29T04:35:47.460Z,99113.75
2019-01-29T04:38:50.746Z,99116.36
2019-01-29T04:41:53.662Z,99121.62
2019-01-29T04:44:57.409Z,99115.89
2019-01-29T04:48:00.330Z,99115.45
2019-01-29T04:51:03.478Z,99118.11
2019-01-29T04:54:06.692Z,99119.01
2019-01-29T04:57:09.678Z,99114.63
2019-01-29T05:00:24.917Z,99115.99
2019-01-29T05:03:29.419Z,99119.38
2019-01-29T05:06:32.324Z,99117.70
2019-01-29T05:09:36.491Z,99112.92
2019-01-29T05:12:39.706Z,99110.77
2019-01-29T05:15:43.280Z,99119.41
2019-01-29T05:18:46.895Z,99108.13
2019-01-29T05:21:49.853Z,99104.65
2019-01-29T05:24:53.176Z,99108.63
2019-01-29T05:27:56.460Z,99115.99
2019-01-29T05:30:59.630Z,99108.20
2019-01-29T05:34:03.963Z,99109.94
2019-01-29T05:37:06.931Z,99116.03
2019-01-29T05:40:13.701Z,99112.95
2019-01-29T05:43:16.598Z,99117.63
2019-01-29T05:46:19.528Z,99121.22
2019-01-29T05:49:22.452Z,99120.75
2019-01-29T05:52:25.684Z,99118.17
2019-01-29T05:55:28.599Z,99118.11
2019-01-29T05:58:32.038Z,99117.63
2019-01-29T06:01:34.954Z,99122.05
2019-01-29T06:04:39.274Z,99116.73
2019-01-29T06:07:42.174Z,99116.40
2019-01-29T06:10:45.100Z,99118.20
2019-01-29T06:13:48.020Z,99117.77
2019-01-29T06:16:51.336Z,99124.70
2019-01-29T06:19:54.289Z,99121.25
2019-01-29T06:22:57.514Z,99120.78
2019-01-29T06:26:00.846Z,99120.78
2019-01-29T06:29:04.084Z,99120.78
2019-01-29T06:32:07.006Z,99118.61
2019-01-29T06:35:12.266Z,99119.47
2019-01-29T06:38:15.590Z,99124.20
2019-01-29T06:41:18.820Z,99119.01
2019-01-29T06:44:21.718Z,99122.05
2019-01-29T06:47:24.646Z,99124.29
2019-01-29T06:50:27.807Z,99122.58
2019-01-29T06:53:31.513Z,99129.11
2019-01-29T06:56:34.439Z,99131.19
2019-01-29T06:59:37.704Z,99122.39
2019-01-29T07:02:40.726Z,99125.36
2019-01-29T07:05:43.652Z,99129.71
2019-01-29T07:08:46.671Z,99130.19
2019-01-29T07:12:01.364Z,99132.72
2019-01-29T07:15:05.892Z,99131.02
2019-01-29T07:18:19.158Z,99138.49
2019-01-29T07:21:22.355Z,99139.77
2019-01-29T07:24:25.279Z,99145.34
2019-01-29T07:27:28.860Z,99143.19
2019-01-29T07:30:31.763Z,99146.95
2019-01-29T07:33:34.683Z,99152.17
2019-01-29T07:36:38.062Z,99155.99
2019-01-29T07:39:41.338Z,99152.07
2019-01-29T07:42:44.511Z,99149.14
2019-01-29T07:45:47.415Z,99151.24
2019-01-29T07:48:50.954Z,99151.72
2019-01-29T07:51:54.201Z,99151.28
2019-01-29T07:54:57.728Z,99147.05
2019-01-29T07:58:00.693Z,99137.87
2019-01-29T08:01:03.820Z,99139.22
2019-01-29T08:04:06.843Z,99132.16
2019-01-29T08:07:10.770Z,99133.13
2019-01-29T08:10:14.290Z,99129.95
2019-01-29T08:13:17.318Z,99125.55
2019-01-29T08:16:20.569Z,99128.55
2019-01-29T08:19:23.485Z,99125.99
2019-01-29T08:22:26.422Z,99132.96
2019-01-29T08:25:29.733Z,99135.06
2019-01-29T08:28:32.639Z,99131.84
2019-01-29T08:31:35.890Z,99133.64
2019-01-29T08:34:38.835Z,99124.04
2019-01-29T08:37:41.768Z,99130.63
2019-01-29T08:40:45.101Z,99128.98
2019-01-29T08:43:48.698Z,99128.89
2019-01-29T08:46:52.417Z,99127.72
2019-01-29T08:49:55.591Z,99120.36
2019-01-29T08:52:58.520Z,99117.17
2019-01-29T08:56:01.440Z,99119.80
2019-01-29T08:59:04.450Z,99112.67
2019-01-29T09:02:08.242Z,99117.46
2019-01-29T09:05:12.052Z,99105.45
2019-01-29T09:08:15.307Z,99106.56
2019-01-29T09:11:18.246Z,99108.25
2019-01-29T09:14:21.896Z,99109.77
2019-01-29T09:17:25.131Z,99108.41
2019-01-29T09:20:28.334Z,99110.04
2019-01-29T09:23:31.264Z,99102.97
2019-01-29T09:26:34.835Z,99102.03
2019-01-29T09:29:38.066Z,99100.48
2019-01-29T09:32:40.992Z,99097.98
2019-01-29T09:35:44.277Z,99097.00
2019-01-29T09:38:47.535Z,99095.75
2019-01-29T09:41:50.875Z,99100.19
2019-01-29T09:44:53.807Z,99096.38
2019-01-29T09:47:56.739Z,99085.54
2019-01-29T09:50:59.999Z,99081.98
2019-01-29T09:54:05.060Z,99084.59
2019-01-29T09:57:09.046Z,99079.98
2019-01-29T10:00:30.401Z,99083.74
2019-01-29T10:03:33.991Z,99088.59
2019-01-29T10:06:37.524Z,99088.16
2019-01-29T10:09:41.943Z,99086.96
2019-01-29T10:12:44.863Z,99080.19
2019-01-29T10:15:47.794Z,99076.33
2019-01-29T10:18:51.324Z,99075.40
2019-01-29T10:21:54.254Z,99073.27
2019-01-29T10:24:57.527Z,99076.70
2019-01-29T10:28:00.491Z,99066.30
2019-01-29T10:31:04.673Z,99061.38
2019-01-29T10:34:07.568Z,99047.67
2019-01-29T10:37:10.493Z,99048.39
2019-01-29T10:40:17.059Z,99040.24
2019-01-29T10:43:20.659Z,99039.45
2019-01-29T10:46:24.687Z,99029.56
2019-01-29T10:49:27.873Z,99029.91
2019-01-29T10:52:31.899Z,99025.13
2019-01-29T10:55:35.145Z,99009.23
2019-01-29T10:58:38.071Z,99005.34
2019-01-29T11:01:41.291Z,98994.83
2019-01-29T11:04:44.193Z,98996.19
2019-01-29T11:07:47.130Z,98993.98
2019-01-29T11:10:50.048Z,98984.94
2019-01-29T11:13:54.031Z,98977.23
2019-01-29T11:16:57.634Z,98984.64
2019-01-29T11:20:00.830Z,98979.84
2019-01-29T11:23:05.524Z,98974.85
2019-01-29T11:26:08.523Z,98966.69
2019-01-29T11:29:12.555Z,98968.53
2019-01-29T11:32:15.474Z,98965.80
2019-01-29T11:35:18.367Z,98963.95
2019-01-29T11:38:21.758Z,98959.47
2019-01-29T11:41:25.526Z,98947.94
2019-01-29T11:44:28.452Z,98946.79
2019-01-29T11:47:31.379Z,98943.62
2019-01-29T11:50:34.698Z,98951.27
2019-01-29T11:53:37.640Z,98946.88
2019-01-29T11:56:40.563Z,98947.77
2019-01-29T11:59:43.797Z,98946.16
2019-01-29T12:02:47.153Z,98934.38
2019-01-29T12:05:50.107Z,98940.87
2019-01-29T12:08:53.351Z,98939.25
2019-01-29T12:11:56.433Z,98932.69
2019-01-29T12:14:59.327Z,98939.31
2019-01-29T12:18:03.347Z,98939.02
2019-01-29T12:21:06.547Z,98934.02
2019-01-29T12:24:11.260Z,98937.19
2019-01-29T12:27:14.303Z,98921.73
2019-01-29T12:30:19.271Z,98917.16
2019-01-29T12:33:22.485Z,98907.78
2019-01-29T12:36:25.720Z,98904.95
2019-01-29T12:39:28.644Z,98902.26
2019-01-29T12:42:31.568Z,98897.19
2019-01-29T12:45:35.248Z,98898.63
2019-01-29T12:48:38.543Z,98887.55
2019-01-29T12:51:54.699Z,98881.97
2019-01-29T12:54:58.075Z,98869.68
2019-01-29T12:58:01.236Z,98868.09
2019-01-29T13:01:05.274Z,98862.75
2019-01-29T13:04:08.303Z,98857.89
2019-01-29T13:07:11.563Z,98852.97
2019-01-29T13:10:18.067Z,98848.44
2019-01-29T13:13:21.592Z,98845.02
2019-01-29T13:16:24.803Z,98840.21
2019-01-29T13:19:28.016Z,98841.27
2019-01-29T13:22:30.922Z,98833.69
2019-01-29T13:25:33.842Z,98835.34
2019-01-29T13:28:36.759Z,98833.69
2019-01-29T13:31:39.948Z,98828.68
2019-01-29T13:34:42.858Z,98823.95
2019-01-29T13:37:46.131Z,98825.27
2019-01-29T13:40:49.522Z,98828.94
2019-01-29T13:43:52.727Z,98819.63
2019-01-29T13:46:56.008Z,98819.64
2019-01-29T13:49:59.311Z,98815.77
2019-01-29T13:53:02.851Z,98816.93
2019-01-29T13:56:06.084Z,98808.75
2019-01-29T13:59:09.291Z,98805.20
2019-01-29T14:02:12.230Z,98789.27
2019-01-29T14:05:15.120Z,98790.25
2019-01-29T14:08:18.039Z,98787.42
2019-01-29T14:11:20.976Z,98776.98
2019-01-29T14:14:26.107Z,98774.13
2019-01-29T14:17:29.377Z,98771.32
2019-01-29T14:20:32.671Z,98765.17
2019-01-29T14:23:36.284Z,98769.20
2019-01-29T14:26:47.347Z,98762.21
2019-01-29T14:29:44.606Z,98754.48
2019-01-29T14:32:48.165Z,98756.66
2019-01-29T14:35:51.622Z,98757.83
2019-01-29T14:39:58.623Z,98741.84
2019-01-29T14:43:02.336Z,98739.94
2019-01-29T14:46:05.362Z,98728.44
2019-01-29T14:49:08.618Z,98725.45
2019-01-29T14:52:12.627Z,98722.80
2019-01-29T14:55:16.067Z,98723.15
2019-01-29T14:58:19.443Z,98721.86
2019-01-29T15:01:22.803Z,98719.69
2019-01-29T15:04:26.042Z,98722.47
2019-01-29T15:07:30.502Z,98723.77
2019-01-29T15:10:34.014Z,98711.48
2019-01-29T15:13:37.651Z,98705.98
2019-01-29T15:16:56.826Z,98702.55
2019-01-29T15:20:00.217Z,98704.36
2019-01-29T15:23:03.696Z,98695.52
2019-01-29T15:26:07.255Z,98697.31
2019-01-29T15:29:10.163Z,98693.36
2019-01-29T15:32:13.082Z,98687.70
2019-01-29T15:35:16.103Z,98688.26
2019-01-29T15:38:19.002Z,98689.86
2019-01-29T15:41:21.934Z,98687.45
2019-01-29T15:44:24.828Z,98677.45
2019-01-29T15:47:28.456Z,98675.36
2019-01-29T15:50:31.715Z,98671.77
2019-01-29T15:53:35.042Z,98669.13
2019-01-29T15:56:38.619Z,98662.30
2019-01-29T15:59:42.937Z,98663.34
2019-01-29T16:02:46.332Z,98665.42
2019-01-29T16:05:49.259Z,98655.98
2019-01-29T16:08:52.520Z,98650.70
2019-01-29T16:11:55.768Z,98646.89
2019-01-29T16:14:58.664Z,98648.70
2019-01-29T16:18:02.504Z,98653.36
2019-01-29T16:21:05.967Z,98653.11
2019-01-29T16:24:09.971Z,98654.62
2019-01-29T16:27:12.907Z,98650.47
2019-01-29T16:30:19.945Z,98646.09
2019-01-29T16:33:22.867Z,98643.00
2019-01-29T16:36:26.172Z,98641.68
2019-01-29T16:39:29.095Z,98638.12
2019-01-29T16:42:32.015Z,98633.75
2019-01-29T16:45:36.238Z,98631.27
2019-01-29T16:48:39.201Z,98630.47
2019-01-29T16:51:42.721Z,98633.70
2019-01-29T16:54:46.135Z,98633.77
2019-01-29T16:57:49.528Z,98624.91
2019-01-29T17:00:52.491Z,98627.59
2019-01-29T17:03:55.420Z,98623.81
2019-01-29T17:06:58.357Z,98609.60
2019-01-29T17:10:01.313Z,98612.70
2019-01-29T17:13:04.823Z,98607.92
2019-01-29T17:16:07.868Z,98601.95
2019-01-29T17:19:11.389Z,98601.15
2019-01-29T17:22:14.300Z,98597.73
2019-01-29T17:25:17.511Z,98594.00
2019-01-29T17:28:20.498Z,98591.22
2019-01-29T17:31:23.460Z,98587.11
2019-01-29T17:34:26.439Z,98585.19
2019-01-29T17:37:29.644Z,98582.50
2019-01-29T17:40:33.773Z,98574.16
2019-01-29T17:43:36.814Z,98569.73
2019-01-29T17:46:39.734Z,98566.41
2019-01-29T17:49:42.674Z,98561.90
2019-01-29T17:52:45.916Z,98557.88
2019-01-29T17:55:48.888Z,98557.95
2019-01-29T17:58:51.796Z,98552.46
2019-01-29T18:01:55.185Z,98553.97
2019-01-29T18:04:59.258Z,98551.27
2019-01-29T18:08:02.362Z,98544.80
2019-01-29T18:11:05.287Z,98545.83
2019-01-29T18:14:08.526Z,98542.87
2019-01-29T18:17:11.803Z,98540.56
2019-01-29T18:20:15.854Z,98531.58
2019-01-29T18:23:18.766Z,98530.63
2019-01-29T18:26:21.967Z,98519.69
2019-01-29T18:29:25.239Z,98515.34
2019-01-29T18:32:28.597Z,98510.84
2019-01-29T18:35:31.978Z,98503.17
2019-01-29T18:38:36.282Z,98500.34
2019-01-29T18:41:40.324Z,98499.03
2019-01-29T18:44:43.298Z,98488.77
2019-01-29T18:47:46.239Z,98487.11
2019-01-29T18:50:49.576Z,98480.77
2019-01-29T18:53:52.774Z,98479.84
2019-01-29T18:56:55.723Z,98484.97
2019-01-29T18:59:58.657Z,98481.94
2019-01-29T19:03:01.666Z,98481.13
2019-01-29T19:06:05.202Z,98474.23
2019-01-29T19:09:08.607Z,98470.60
2019-01-29T19:12:12.445Z,98465.45
2019-01-29T19:15:18.242Z,98467.36
2019-01-29T19:18:21.279Z,98460.94
2019-01-29T19:21:25.082Z,98461.80
2019-01-29T19:24:28.353Z,98458.00
2019-01-29T19:27:31.383Z,98455.22
2019-01-29T19:30:34.387Z,98458.67
2019-01-29T19:33:37.652Z,98451.01
2019-01-29T19:36:40.635Z,98449.23
2019-01-29T19:39:44.353Z,98450.23
2019-01-29T19:42:47.609Z,98446.88
2019-01-29T19:45:50.862Z,98442.61
2019-01-29T19:48:54.116Z,98436.42
2019-01-29T19:51:57.765Z,98435.98
2019-01-29T19:55:00.688Z,98428.26
2019-01-29T19:58:09.086Z,98422.00
2019-01-29T20:01:10.562Z,98418.17
2019-01-29T20:04:13.755Z,98416.59
2019-01-29T20:07:17.019Z,98413.02
2019-01-29T20:10:20.755Z,98412.50
2019-01-29T20:13:24.332Z,98409.21
2019-01-29T20:16:27.379Z,98408.08
2019-01-29T20:19:31.543Z,98400.53
2019-01-29T20:22:35.238Z,98399.49
2019-01-29T20:25:38.650Z,98396.25
2019-01-29T20:28:42.787Z,98393.05
2019-01-29T20:31:46.497Z,98385.75
2019-01-29T20:34:49.813Z,98380.94
2019-01-29T20:37:53.870Z,98381.38
2019-01-29T20:40:57.388Z,98374.86
2019-01-29T20:44:00.726Z,98374.52
2019-01-29T20:47:03.675Z,98363.63
2019-01-29T20:50:11.842Z,98360.16
2019-01-29T20:53:15.194Z,98357.89
2019-01-29T20:56:18.598Z,98349.41
2019-01-29T20:59:21.782Z,98354.69
2019-01-29T21:02:24.773Z,98349.80
2019-01-29T21:05:28.132Z,98349.81
2019-01-29T21:08:31.457Z,98350.45
2019-01-29T21:11:35.107Z,98350.71
2019-01-29T21:14:38.052Z,98344.26
2019-01-29T21:17:40.974Z,98346.25
2019-01-29T21:20:44.286Z,98343.42
2019-01-29T21:23:49.101Z,98336.61
2019-01-29T21:26:53.899Z,98337.17
2019-01-29T21:29:57.731Z,98330.33
2019-01-29T21:33:00.993Z,98322.46
2019-01-29T21:36:04.521Z,98322.63
2019-01-29T21:39:08.842Z,98324.09
2019-01-29T21:42:12.735Z,98322.72
2019-01-29T21:45:16.163Z,98314.54
2019-01-29T21:48:19.397Z,98315.84
2019-01-29T21:51:22.583Z,98310.78
2019-01-29T21:54:25.548Z,98306.81
2019-01-29T21:57:28.452Z,98309.80
2019-01-29T22:00:37.419Z,98304.14
2019-01-29T22:03:40.357Z,98295.71
2019-01-29T22:06:43.290Z,98287.98
2019-01-29T22:09:46.297Z,98285.25
2019-01-29T22:12:50.633Z,98285.00
2019-01-29T22:15:53.561Z,98271.97
2019-01-29T22:18:56.472Z,98274.55
2019-01-29T22:22:00.144Z,98269.80
2019-01-29T22:25:04.429Z,98256.16
2019-01-29T22:28:10.019Z,98264.23
2019-01-29T22:31:13.246Z,98254.95
2019-01-29T22:34:17.161Z,98251.01
2019-01-29T22:37:20.080Z,98248.53
2019-01-29T22:40:24.448Z,98236.24
2019-01-29T22:43:27.372Z,98237.55
2019-01-29T22:46:30.547Z,98231.89
2019-01-29T22:49:33.473Z,98225.75
2019-01-29T22:52:36.685Z,98219.10
2019-01-29T22:55:39.628Z,98207.79
2019-01-29T22:58:42.840Z,98209.63
2019-01-29T23:01:45.868Z,98200.19
2019-01-29T23:04:49.354Z,98195.72
2019-01-29T23:07:52.607Z,98190.11
2019-01-29T23:10:57.456Z,98184.54
2019-01-29T23:14:00.481Z,98180.28
2019-01-29T23:17:04.994Z,98172.44
2019-01-29T23:20:09.546Z,98173.20
2019-01-29T23:23:12.883Z,98173.69
2019-01-29T23:26:16.183Z,98158.16
2019-01-29T23:29:19.743Z,98154.69
2019-01-29T23:32:22.759Z,98152.89
2019-01-29T23:35:25.718Z,98147.52
2019-01-29T23:38:29.019Z,98135.20
2019-01-29T23:41:32.249Z,98132.58
2019-01-29T23:44:36.819Z,98121.77
2019-01-29T23:47:40.254Z,98118.78
2019-01-29T23:50:43.895Z,98114.92
2019-01-29T23:53:46.815Z,98105.95
2019-01-29T23:56:49.763Z,98102.92
2019-01-29T23:59:53.662Z,98102.83
